sensor_id;sensor_type;location;lat;lon;timestamp;P1;durP1;ratioP1;P2;durP2;ratioP2
31238;SDS011;17871;31.584;74.450;2024-03-08T00:00:43;159.60;;;75.75;;
31238;SDS011;17871;31.584;74.450;2024-03-08T00:03:12;162.70;;;75.93;;
31238;SDS011;17871;31.584;74.450;2024-03-08T00:05:42;149.85;;;77.55;;
31238;SDS011;17871;31.584;74.450;2024-03-08T00:08:11;169.57;;;74.25;;
31238;SDS011;17871;31.584;74.450;2024-03-08T00:10:40;170.95;;;75.90;;
31238;SDS011;17871;31.584;74.450;2024-03-08T00:13:09;180.90;;;77.57;;
31238;SDS011;17871;31.584;74.450;2024-03-08T00:15:38;178.13;;;77.10;;
31238;SDS011;17871;31.584;74.450;2024-03-08T00:18:07;164.85;;;78.88;;
31238;SDS011;17871;31.584;74.450;2024-03-08T00:20:37;165.25;;;82.18;;
31238;SDS011;17871;31.584;74.450;2024-03-08T00:23:06;163.98;;;83.18;;
31238;SDS011;17871;31.584;74.450;2024-03-08T00:25:36;165.23;;;75.45;;
31238;SDS011;17871;31.584;74.450;2024-03-08T00:28:05;180.13;;;77.45;;
31238;SDS011;17871;31.584;74.450;2024-03-08T00:30:34;152.15;;;76.13;;
31238;SDS011;17871;31.584;74.450;2024-03-08T00:33:03;149.77;;;70.25;;
31238;SDS011;17871;31.584;74.450;2024-03-08T00:35:33;157.65;;;75.47;;
31238;SDS011;17871;31.584;74.450;2024-03-08T00:38:02;145.77;;;73.18;;
31238;SDS011;17871;31.584;74.450;2024-03-08T00:40:31;138.77;;;71.00;;
31238;SDS011;17871;31.584;74.450;2024-03-08T00:43:00;135.75;;;68.18;;
31238;SDS011;17871;31.584;74.450;2024-03-08T00:45:32;150.77;;;73.22;;
31238;SDS011;17871;31.584;74.450;2024-03-08T00:48:01;149.85;;;71.47;;
31238;SDS011;17871;31.584;74.450;2024-03-08T00:50:30;147.98;;;71.30;;
31238;SDS011;17871;31.584;74.450;2024-03-08T00:52:59;143.27;;;71.47;;
31238;SDS011;17871;31.584;74.450;2024-03-08T00:55:28;179.13;;;71.15;;
31238;SDS011;17871;31.584;74.450;2024-03-08T00:57:58;147.10;;;69.72;;
31238;SDS011;17871;31.584;74.450;2024-03-08T01:00:27;168.05;;;73.70;;
31238;SDS011;17871;31.584;74.450;2024-03-08T01:02:56;177.43;;;75.38;;
31238;SDS011;17871;31.584;74.450;2024-03-08T01:05:25;174.52;;;82.15;;
31238;SDS011;17871;31.584;74.450;2024-03-08T01:07:54;198.52;;;85.20;;
31238;SDS011;17871;31.584;74.450;2024-03-08T01:10:24;194.75;;;78.28;;
31238;SDS011;17871;31.584;74.450;2024-03-08T01:12:53;169.65;;;72.22;;
31238;SDS011;17871;31.584;74.450;2024-03-08T01:15:25;164.60;;;68.15;;
31238;SDS011;17871;31.584;74.450;2024-03-08T01:17:54;164.65;;;68.63;;
31238;SDS011;17871;31.584;74.450;2024-03-08T01:20:23;164.10;;;70.35;;
31238;SDS011;17871;31.584;74.450;2024-03-08T01:22:53;158.27;;;67.35;;
31238;SDS011;17871;31.584;74.450;2024-03-08T01:25:22;163.73;;;67.70;;
31238;SDS011;17871;31.584;74.450;2024-03-08T01:27:51;155.27;;;67.93;;
31238;SDS011;17871;31.584;74.450;2024-03-08T01:30:22;157.82;;;66.95;;
31238;SDS011;17871;31.584;74.450;2024-03-08T01:32:51;166.32;;;71.13;;
31238;SDS011;17871;31.584;74.450;2024-03-08T01:35:21;166.60;;;70.97;;
31238;SDS011;17871;31.584;74.450;2024-03-08T01:37:50;178.27;;;72.95;;
31238;SDS011;17871;31.584;74.450;2024-03-08T01:40:20;172.80;;;70.57;;
31238;SDS011;17871;31.584;74.450;2024-03-08T01:42:49;189.50;;;75.07;;
31238;SDS011;17871;31.584;74.450;2024-03-08T01:45:38;181.65;;;75.35;;
31238;SDS011;17871;31.584;74.450;2024-03-08T01:48:07;176.00;;;75.07;;
31238;SDS011;17871;31.584;74.450;2024-03-08T01:50:37;174.52;;;72.97;;
31238;SDS011;17871;31.584;74.450;2024-03-08T01:53:07;181.10;;;73.43;;
31238;SDS011;17871;31.584;74.450;2024-03-08T01:55:38;263.92;;;118.13;;
31238;SDS011;17871;31.584;74.450;2024-03-08T01:58:09;199.55;;;86.32;;
31238;SDS011;17871;31.584;74.450;2024-03-08T02:00:40;196.15;;;81.22;;
31238;SDS011;17871;31.584;74.450;2024-03-08T02:03:11;183.38;;;83.47;;
31238;SDS011;17871;31.584;74.450;2024-03-08T02:05:40;203.25;;;87.43;;
31238;SDS011;17871;31.584;74.450;2024-03-08T02:08:09;224.23;;;87.30;;
31238;SDS011;17871;31.584;74.450;2024-03-08T02:10:47;226.85;;;90.25;;
31238;SDS011;17871;31.584;74.450;2024-03-08T02:13:18;240.75;;;103.05;;
31238;SDS011;17871;31.584;74.450;2024-03-08T02:18:22;288.65;;;117.43;;
31238;SDS011;17871;31.584;74.450;2024-03-08T02:23:21;276.95;;;110.80;;
31238;SDS011;17871;31.584;74.450;2024-03-08T02:25:51;229.93;;;101.28;;
31238;SDS011;17871;31.584;74.450;2024-03-08T02:28:20;212.00;;;95.43;;
31238;SDS011;17871;31.584;74.450;2024-03-08T02:30:49;216.43;;;90.28;;
31238;SDS011;17871;31.584;74.450;2024-03-08T02:33:26;204.70;;;92.93;;
31238;SDS011;17871;31.584;74.450;2024-03-08T02:35:56;171.95;;;76.15;;
31238;SDS011;17871;31.584;74.450;2024-03-08T02:38:25;168.82;;;74.35;;
31238;SDS011;17871;31.584;74.450;2024-03-08T02:40:55;182.10;;;69.78;;
31238;SDS011;17871;31.584;74.450;2024-03-08T02:43:23;155.73;;;65.05;;
31238;SDS011;17871;31.584;74.450;2024-03-08T02:45:52;147.80;;;64.53;;
31238;SDS011;17871;31.584;74.450;2024-03-08T02:48:22;137.23;;;58.92;;
31238;SDS011;17871;31.584;74.450;2024-03-08T02:50:51;115.10;;;54.38;;
31238;SDS011;17871;31.584;74.450;2024-03-08T02:53:21;125.28;;;51.50;;
31238;SDS011;17871;31.584;74.450;2024-03-08T02:55:50;121.85;;;53.65;;
31238;SDS011;17871;31.584;74.450;2024-03-08T02:58:19;137.40;;;59.05;;
31238;SDS011;17871;31.584;74.450;2024-03-08T03:00:48;147.85;;;58.30;;
31238;SDS011;17871;31.584;74.450;2024-03-08T03:03:18;120.97;;;53.83;;
31238;SDS011;17871;31.584;74.450;2024-03-08T03:05:47;144.85;;;56.17;;
31238;SDS011;17871;31.584;74.450;2024-03-08T03:08:16;111.82;;;48.03;;
31238;SDS011;17871;31.584;74.450;2024-03-08T03:10:46;95.65;;;47.13;;
31238;SDS011;17871;31.584;74.450;2024-03-08T03:13:15;103.32;;;46.88;;
31238;SDS011;17871;31.584;74.450;2024-03-08T03:15:46;100.80;;;48.67;;
31238;SDS011;17871;31.584;74.450;2024-03-08T03:18:15;128.55;;;53.70;;
31238;SDS011;17871;31.584;74.450;2024-03-08T03:20:45;113.63;;;53.33;;
31238;SDS011;17871;31.584;74.450;2024-03-08T03:23:14;129.55;;;55.78;;
31238;SDS011;17871;31.584;74.450;2024-03-08T03:25:48;126.00;;;49.13;;
31238;SDS011;17871;31.584;74.450;2024-03-08T03:28:18;83.22;;;35.72;;
31238;SDS011;17871;31.584;74.450;2024-03-08T03:30:50;83.55;;;32.25;;
31238;SDS011;17871;31.584;74.450;2024-03-08T03:33:19;71.20;;;31.67;;
31238;SDS011;17871;31.584;74.450;2024-03-08T03:35:49;66.15;;;31.73;;
31238;SDS011;17871;31.584;74.450;2024-03-08T03:38:20;56.45;;;28.70;;
31238;SDS011;17871;31.584;74.450;2024-03-08T03:40:52;61.78;;;29.45;;
31238;SDS011;17871;31.584;74.450;2024-03-08T03:45:54;77.50;;;29.17;;
31238;SDS011;17871;31.584;74.450;2024-03-08T03:48:24;73.05;;;30.65;;
31238;SDS011;17871;31.584;74.450;2024-03-08T03:50:53;64.55;;;29.88;;
31238;SDS011;17871;31.584;74.450;2024-03-08T03:53:22;71.68;;;31.30;;
31238;SDS011;17871;31.584;74.450;2024-03-08T03:55:51;60.20;;;31.40;;
31238;SDS011;17871;31.584;74.450;2024-03-08T03:58:20;63.83;;;29.35;;
31238;SDS011;17871;31.584;74.450;2024-03-08T04:00:51;75.93;;;31.25;;
31238;SDS011;17871;31.584;74.450;2024-03-08T04:03:20;70.82;;;29.05;;
31238;SDS011;17871;31.584;74.450;2024-03-08T04:05:50;99.55;;;36.75;;
31238;SDS011;17871;31.584;74.450;2024-03-08T04:08:19;85.30;;;37.38;;
31238;SDS011;17871;31.584;74.450;2024-03-08T04:10:49;78.28;;;32.70;;
31238;SDS011;17871;31.584;74.450;2024-03-08T04:13:18;69.07;;;33.38;;
31238;SDS011;17871;31.584;74.450;2024-03-08T04:15:48;80.45;;;35.15;;
31238;SDS011;17871;31.584;74.450;2024-03-08T04:18:18;64.85;;;33.38;;
31238;SDS011;17871;31.584;74.450;2024-03-08T04:20:47;66.22;;;34.25;;
31238;SDS011;17871;31.584;74.450;2024-03-08T04:23:17;63.60;;;32.53;;
31238;SDS011;17871;31.584;74.450;2024-03-08T04:25:46;66.72;;;32.70;;
31238;SDS011;17871;31.584;74.450;2024-03-08T04:28:15;56.33;;;29.20;;
31238;SDS011;17871;31.584;74.450;2024-03-08T04:30:45;65.57;;;34.25;;
31238;SDS011;17871;31.584;74.450;2024-03-08T04:33:14;69.00;;;33.85;;
31238;SDS011;17871;31.584;74.450;2024-03-08T04:35:46;73.70;;;34.17;;
31238;SDS011;17871;31.584;74.450;2024-03-08T04:38:16;82.00;;;35.42;;
31238;SDS011;17871;31.584;74.450;2024-03-08T04:40:45;71.18;;;33.15;;
31238;SDS011;17871;31.584;74.450;2024-03-08T04:43:14;80.53;;;36.25;;
31238;SDS011;17871;31.584;74.450;2024-03-08T04:45:43;87.70;;;36.95;;
31238;SDS011;17871;31.584;74.450;2024-03-08T04:48:12;92.10;;;37.25;;
31238;SDS011;17871;31.584;74.450;2024-03-08T04:50:42;90.65;;;37.83;;
31238;SDS011;17871;31.584;74.450;2024-03-08T04:53:13;69.55;;;33.03;;
31238;SDS011;17871;31.584;74.450;2024-03-08T04:55:43;67.68;;;34.80;;
31238;SDS011;17871;31.584;74.450;2024-03-08T04:58:13;70.28;;;35.05;;
31238;SDS011;17871;31.584;74.450;2024-03-08T05:00:42;76.63;;;35.13;;
31238;SDS011;17871;31.584;74.450;2024-03-08T05:03:11;77.53;;;35.28;;
31238;SDS011;17871;31.584;74.450;2024-03-08T05:05:40;78.85;;;34.00;;
31238;SDS011;17871;31.584;74.450;2024-03-08T05:08:10;75.32;;;35.65;;
31238;SDS011;17871;31.584;74.450;2024-03-08T05:10:39;84.75;;;31.70;;
31238;SDS011;17871;31.584;74.450;2024-03-08T05:13:08;60.38;;;29.85;;
31238;SDS011;17871;31.584;74.450;2024-03-08T05:15:37;54.65;;;26.30;;
31238;SDS011;17871;31.584;74.450;2024-03-08T05:18:07;52.40;;;26.25;;
31238;SDS011;17871;31.584;74.450;2024-03-08T05:23:09;50.33;;;25.77;;
31238;SDS011;17871;31.584;74.450;2024-03-08T05:25:39;54.67;;;26.02;;
31238;SDS011;17871;31.584;74.450;2024-03-08T05:28:08;67.65;;;27.63;;
31238;SDS011;17871;31.584;74.450;2024-03-08T05:30:37;43.55;;;25.35;;
31238;SDS011;17871;31.584;74.450;2024-03-08T05:33:07;61.70;;;28.33;;
31238;SDS011;17871;31.584;74.450;2024-03-08T05:35:40;60.33;;;25.73;;
31238;SDS011;17871;31.584;74.450;2024-03-08T05:38:09;63.38;;;25.85;;
31238;SDS011;17871;31.584;74.450;2024-03-08T05:40:38;59.17;;;27.70;;
31238;SDS011;17871;31.584;74.450;2024-03-08T05:43:07;52.70;;;28.08;;
31238;SDS011;17871;31.584;74.450;2024-03-08T05:45:37;49.92;;;24.95;;
31238;SDS011;17871;31.584;74.450;2024-03-08T05:48:06;51.28;;;25.10;;
31238;SDS011;17871;31.584;74.450;2024-03-08T05:50:36;50.92;;;25.23;;
31238;SDS011;17871;31.584;74.450;2024-03-08T05:53:05;50.40;;;24.92;;
31238;SDS011;17871;31.584;74.450;2024-03-08T05:55:37;49.13;;;23.20;;
31238;SDS011;17871;31.584;74.450;2024-03-08T05:58:07;61.50;;;23.40;;
31238;SDS011;17871;31.584;74.450;2024-03-08T06:00:36;54.08;;;25.48;;
31238;SDS011;17871;31.584;74.450;2024-03-08T06:03:05;49.25;;;24.20;;
31238;SDS011;17871;31.584;74.450;2024-03-08T06:05:35;53.75;;;23.50;;
31238;SDS011;17871;31.584;74.450;2024-03-08T06:08:04;54.17;;;24.77;;
31238;SDS011;17871;31.584;74.450;2024-03-08T06:10:36;58.25;;;24.88;;
31238;SDS011;17871;31.584;74.450;2024-03-08T06:13:06;42.65;;;23.15;;
31238;SDS011;17871;31.584;74.450;2024-03-08T06:15:35;47.30;;;22.63;;
31238;SDS011;17871;31.584;74.450;2024-03-08T06:18:04;81.93;;;35.45;;
31238;SDS011;17871;31.584;74.450;2024-03-08T06:20:34;153.90;;;54.30;;
31238;SDS011;17871;31.584;74.450;2024-03-08T06:23:03;84.53;;;32.80;;
31238;SDS011;17871;31.584;74.450;2024-03-08T06:25:32;53.67;;;22.00;;
31238;SDS011;17871;31.584;74.450;2024-03-08T06:28:03;49.42;;;19.13;;
31238;SDS011;17871;31.584;74.450;2024-03-08T06:30:33;50.45;;;20.38;;
31238;SDS011;17871;31.584;74.450;2024-03-08T06:33:03;34.15;;;18.67;;
31238;SDS011;17871;31.584;74.450;2024-03-08T06:35:32;35.88;;;19.00;;
31238;SDS011;17871;31.584;74.450;2024-03-08T06:38:01;42.65;;;18.40;;
31238;SDS011;17871;31.584;74.450;2024-03-08T06:40:30;37.63;;;17.98;;
31238;SDS011;17871;31.584;74.450;2024-03-08T06:42:59;36.17;;;18.40;;
31238;SDS011;17871;31.584;74.450;2024-03-08T06:45:29;38.60;;;20.20;;
31238;SDS011;17871;31.584;74.450;2024-03-08T06:47:58;50.28;;;21.20;;
31238;SDS011;17871;31.584;74.450;2024-03-08T06:50:29;94.57;;;34.05;;
31238;SDS011;17871;31.584;74.450;2024-03-08T06:53:00;80.88;;;27.65;;
31238;SDS011;17871;31.584;74.450;2024-03-08T06:55:29;29.35;;;14.63;;
31238;SDS011;17871;31.584;74.450;2024-03-08T06:57:59;36.70;;;17.83;;
31238;SDS011;17871;31.584;74.450;2024-03-08T07:00:28;41.92;;;19.55;;
31238;SDS011;17871;31.584;74.450;2024-03-08T07:02:59;40.30;;;18.35;;
31238;SDS011;17871;31.584;74.450;2024-03-08T07:08:01;37.78;;;16.92;;
31238;SDS011;17871;31.584;74.450;2024-03-08T07:10:31;46.38;;;17.50;;
31238;SDS011;17871;31.584;74.450;2024-03-08T07:13:00;36.28;;;15.10;;
31238;SDS011;17871;31.584;74.450;2024-03-08T07:15:31;63.53;;;23.05;;
31238;SDS011;17871;31.584;74.450;2024-03-08T07:18:02;54.63;;;22.40;;
31238;SDS011;17871;31.584;74.450;2024-03-08T07:20:36;95.28;;;31.33;;
31238;SDS011;17871;31.584;74.450;2024-03-08T07:23:08;182.27;;;54.08;;
31238;SDS011;17871;31.584;74.450;2024-03-08T07:25:42;38.75;;;16.88;;
31238;SDS011;17871;31.584;74.450;2024-03-08T07:28:13;31.58;;;12.73;;
31238;SDS011;17871;31.584;74.450;2024-03-08T07:30:43;29.92;;;12.05;;
31238;SDS011;17871;31.584;74.450;2024-03-08T07:33:12;27.42;;;11.73;;
31238;SDS011;17871;31.584;74.450;2024-03-08T07:35:42;29.55;;;12.57;;
31238;SDS011;17871;31.584;74.450;2024-03-08T07:38:13;70.80;;;19.73;;
31238;SDS011;17871;31.584;74.450;2024-03-08T07:40:43;33.78;;;14.68;;
31238;SDS011;17871;31.584;74.450;2024-03-08T07:43:16;29.60;;;13.10;;
31238;SDS011;17871;31.584;74.450;2024-03-08T07:45:46;44.97;;;12.93;;
31238;SDS011;17871;31.584;74.450;2024-03-08T07:48:16;32.83;;;15.77;;
31238;SDS011;17871;31.584;74.450;2024-03-08T07:50:49;33.55;;;15.23;;
31238;SDS011;17871;31.584;74.450;2024-03-08T07:53:18;75.80;;;26.35;;
31238;SDS011;17871;31.584;74.450;2024-03-08T07:55:47;28.35;;;14.52;;
31238;SDS011;17871;31.584;74.450;2024-03-08T07:58:16;35.40;;;16.02;;
31238;SDS011;17871;31.584;74.450;2024-03-08T08:00:45;41.05;;;13.52;;
31238;SDS011;17871;31.584;74.450;2024-03-08T08:03:15;27.55;;;12.35;;
31238;SDS011;17871;31.584;74.450;2024-03-08T08:05:44;25.38;;;11.55;;
31238;SDS011;17871;31.584;74.450;2024-03-08T08:08:14;24.88;;;11.20;;
31238;SDS011;17871;31.584;74.450;2024-03-08T08:10:44;26.58;;;10.90;;
31238;SDS011;17871;31.584;74.450;2024-03-08T08:13:16;27.75;;;9.38;;
31238;SDS011;17871;31.584;74.450;2024-03-08T08:15:49;41.78;;;15.98;;
31238;SDS011;17871;31.584;74.450;2024-03-08T08:18:21;42.15;;;15.98;;
31238;SDS011;17871;31.584;74.450;2024-03-08T08:20:56;33.72;;;13.10;;
31238;SDS011;17871;31.584;74.450;2024-03-08T08:23:30;35.55;;;13.60;;
31238;SDS011;17871;31.584;74.450;2024-03-08T08:25:59;32.00;;;9.85;;
31238;SDS011;17871;31.584;74.450;2024-03-08T08:28:30;22.55;;;11.48;;
31238;SDS011;17871;31.584;74.450;2024-03-08T08:30:59;39.70;;;12.68;;
31238;SDS011;17871;31.584;74.450;2024-03-08T08:33:28;18.05;;;8.35;;
31238;SDS011;17871;31.584;74.450;2024-03-08T08:35:58;20.17;;;9.38;;
31238;SDS011;17871;31.584;74.450;2024-03-08T08:38:27;25.02;;;10.13;;
31238;SDS011;17871;31.584;74.450;2024-03-08T08:40:56;42.20;;;12.55;;
31238;SDS011;17871;31.584;74.450;2024-03-08T08:43:25;17.13;;;7.75;;
31238;SDS011;17871;31.584;74.450;2024-03-08T08:45:55;41.13;;;9.65;;
31238;SDS011;17871;31.584;74.450;2024-03-08T08:48:25;19.60;;;10.27;;
31238;SDS011;17871;31.584;74.450;2024-03-08T08:50:54;30.60;;;9.93;;
31238;SDS011;17871;31.584;74.450;2024-03-08T08:53:23;49.42;;;10.50;;
31238;SDS011;17871;31.584;74.450;2024-03-08T08:55:53;17.20;;;7.70;;
31238;SDS011;17871;31.584;74.450;2024-03-08T08:58:22;21.83;;;9.13;;
31238;SDS011;17871;31.584;74.450;2024-03-08T09:00:52;16.98;;;8.95;;
31238;SDS011;17871;31.584;74.450;2024-03-08T09:03:22;37.60;;;12.10;;
31238;SDS011;17871;31.584;74.450;2024-03-08T09:05:53;34.95;;;12.27;;
31238;SDS011;17871;31.584;74.450;2024-03-08T09:08:22;18.10;;;8.82;;
31238;SDS011;17871;31.584;74.450;2024-03-08T09:10:51;15.75;;;9.70;;
31238;SDS011;17871;31.584;74.450;2024-03-08T09:13:21;23.63;;;9.13;;
31238;SDS011;17871;31.584;74.450;2024-03-08T09:15:59;29.23;;;10.02;;
31238;SDS011;17871;31.584;74.450;2024-03-08T09:18:28;20.77;;;7.07;;
31238;SDS011;17871;31.584;74.450;2024-03-08T09:20:58;15.82;;;7.40;;
31238;SDS011;17871;31.584;74.450;2024-03-08T09:23:28;13.85;;;6.72;;
31238;SDS011;17871;31.584;74.450;2024-03-08T09:26:00;21.42;;;9.18;;
31238;SDS011;17871;31.584;74.450;2024-03-08T09:28:37;20.70;;;8.60;;
31238;SDS011;17871;31.584;74.450;2024-03-08T09:31:07;25.58;;;8.48;;
31238;SDS011;17871;31.584;74.450;2024-03-08T09:33:37;13.52;;;7.82;;
31238;SDS011;17871;31.584;74.450;2024-03-08T09:36:08;19.27;;;9.73;;
31238;SDS011;17871;31.584;74.450;2024-03-08T09:38:37;29.23;;;8.75;;
31238;SDS011;17871;31.584;74.450;2024-03-08T09:41:10;13.90;;;6.65;;
31238;SDS011;17871;31.584;74.450;2024-03-08T09:43:39;12.02;;;6.28;;
31238;SDS011;17871;31.584;74.450;2024-03-08T09:46:09;17.40;;;6.05;;
31238;SDS011;17871;31.584;74.450;2024-03-08T09:48:39;20.75;;;9.30;;
31238;SDS011;17871;31.584;74.450;2024-03-08T09:51:10;14.43;;;7.07;;
31238;SDS011;17871;31.584;74.450;2024-03-08T09:53:43;12.25;;;6.65;;
31238;SDS011;17871;31.584;74.450;2024-03-08T09:56:13;21.63;;;7.55;;
31238;SDS011;17871;31.584;74.450;2024-03-08T09:58:42;14.35;;;6.35;;
31238;SDS011;17871;31.584;74.450;2024-03-08T10:01:26;32.60;;;8.23;;
31238;SDS011;17871;31.584;74.450;2024-03-08T10:03:56;14.95;;;6.93;;
31238;SDS011;17871;31.584;74.450;2024-03-08T10:06:26;30.23;;;8.18;;
31238;SDS011;17871;31.584;74.450;2024-03-08T10:08:55;18.05;;;8.40;;
31238;SDS011;17871;31.584;74.450;2024-03-08T10:11:25;17.80;;;9.52;;
31238;SDS011;17871;31.584;74.450;2024-03-08T10:13:55;18.90;;;7.75;;
31238;SDS011;17871;31.584;74.450;2024-03-08T10:16:25;16.95;;;9.10;;
31238;SDS011;17871;31.584;74.450;2024-03-08T10:18:56;19.75;;;9.27;;
31238;SDS011;17871;31.584;74.450;2024-03-08T10:21:25;19.05;;;8.75;;
31238;SDS011;17871;31.584;74.450;2024-03-08T10:23:55;23.95;;;11.05;;
31238;SDS011;17871;31.584;74.450;2024-03-08T10:26:25;15.70;;;8.32;;
31238;SDS011;17871;31.584;74.450;2024-03-08T10:28:54;16.48;;;8.50;;
31238;SDS011;17871;31.584;74.450;2024-03-08T10:31:23;35.88;;;14.35;;
31238;SDS011;17871;31.584;74.450;2024-03-08T10:33:53;22.40;;;10.55;;
31238;SDS011;17871;31.584;74.450;2024-03-08T10:36:23;22.05;;;9.65;;
31238;SDS011;17871;31.584;74.450;2024-03-08T10:38:53;26.00;;;11.38;;
31238;SDS011;17871;31.584;74.450;2024-03-08T10:41:29;22.38;;;10.95;;
31238;SDS011;17871;31.584;74.450;2024-03-08T10:46:57;31.23;;;12.55;;
31238;SDS011;17871;31.584;74.450;2024-03-08T10:49:37;31.60;;;13.30;;
31238;SDS011;17871;31.584;74.450;2024-03-08T10:52:09;24.50;;;11.38;;
31238;SDS011;17871;31.584;74.450;2024-03-08T10:54:41;33.55;;;10.60;;
31238;SDS011;17871;31.584;74.450;2024-03-08T10:57:12;21.52;;;10.15;;
31238;SDS011;17871;31.584;74.450;2024-03-08T10:59:45;19.58;;;10.57;;
31238;SDS011;17871;31.584;74.450;2024-03-08T11:02:17;21.10;;;8.75;;
31238;SDS011;17871;31.584;74.450;2024-03-08T11:04:50;19.98;;;9.77;;
31238;SDS011;17871;31.584;74.450;2024-03-08T11:07:20;16.70;;;8.30;;
31238;SDS011;17871;31.584;74.450;2024-03-08T11:09:50;17.83;;;8.98;;
31238;SDS011;17871;31.584;74.450;2024-03-08T11:12:25;21.98;;;10.45;;
31238;SDS011;17871;31.584;74.450;2024-03-08T11:15:15;24.42;;;7.97;;
31238;SDS011;17871;31.584;74.450;2024-03-08T11:17:48;14.77;;;9.25;;
31238;SDS011;17871;31.584;74.450;2024-03-08T11:20:19;29.50;;;9.50;;
31238;SDS011;17871;31.584;74.450;2024-03-08T11:22:57;35.63;;;9.50;;
31238;SDS011;17871;31.584;74.450;2024-03-08T11:28:19;21.05;;;9.45;;
31238;SDS011;17871;31.584;74.450;2024-03-08T11:33:28;16.67;;;9.05;;
31238;SDS011;17871;31.584;74.450;2024-03-08T11:38:43;24.55;;;9.60;;
31238;SDS011;17871;31.584;74.450;2024-03-08T11:41:12;14.15;;;8.45;;
31238;SDS011;17871;31.584;74.450;2024-03-08T11:43:46;21.23;;;8.68;;
31238;SDS011;17871;31.584;74.450;2024-03-08T11:46:16;20.35;;;8.38;;
31238;SDS011;17871;31.584;74.450;2024-03-08T11:48:47;19.05;;;8.40;;
31238;SDS011;17871;31.584;74.450;2024-03-08T11:51:17;17.35;;;9.57;;
31238;SDS011;17871;31.584;74.450;2024-03-08T11:53:52;17.15;;;9.60;;
31238;SDS011;17871;31.584;74.450;2024-03-08T11:56:22;21.00;;;8.82;;
31238;SDS011;17871;31.584;74.450;2024-03-08T11:58:55;28.80;;;10.55;;
31238;SDS011;17871;31.584;74.450;2024-03-08T12:01:27;15.80;;;8.70;;
31238;SDS011;17871;31.584;74.450;2024-03-08T12:03:57;17.85;;;9.10;;
31238;SDS011;17871;31.584;74.450;2024-03-08T12:06:36;17.08;;;9.25;;
31238;SDS011;17871;31.584;74.450;2024-03-08T12:09:11;19.75;;;9.80;;
31238;SDS011;17871;31.584;74.450;2024-03-08T12:11:41;59.10;;;13.57;;
31238;SDS011;17871;31.584;74.450;2024-03-08T12:14:11;31.33;;;12.55;;
31238;SDS011;17871;31.584;74.450;2024-03-08T12:16:41;19.17;;;8.07;;
31238;SDS011;17871;31.584;74.450;2024-03-08T12:19:11;26.55;;;9.18;;
31238;SDS011;17871;31.584;74.450;2024-03-08T12:21:41;20.75;;;8.77;;
31238;SDS011;17871;31.584;74.450;2024-03-08T12:24:16;30.23;;;9.60;;
31238;SDS011;17871;31.584;74.450;2024-03-08T12:26:49;11.50;;;7.88;;
31238;SDS011;17871;31.584;74.450;2024-03-08T12:29:21;44.22;;;10.07;;
31238;SDS011;17871;31.584;74.450;2024-03-08T12:31:58;34.47;;;11.38;;
31238;SDS011;17871;31.584;74.450;2024-03-08T12:34:29;20.85;;;10.80;;
31238;SDS011;17871;31.584;74.450;2024-03-08T12:37:00;21.02;;;10.23;;
31238;SDS011;17871;31.584;74.450;2024-03-08T12:39:29;28.88;;;9.93;;
31238;SDS011;17871;31.584;74.450;2024-03-08T12:41:59;28.73;;;11.20;;
31238;SDS011;17871;31.584;74.450;2024-03-08T12:44:28;32.05;;;11.65;;
31238;SDS011;17871;31.584;74.450;2024-03-08T12:46:57;37.22;;;13.73;;
31238;SDS011;17871;31.584;74.450;2024-03-08T12:49:27;24.92;;;11.88;;
31238;SDS011;17871;31.584;74.450;2024-03-08T12:51:58;27.48;;;14.00;;
31238;SDS011;17871;31.584;74.450;2024-03-08T12:54:29;46.17;;;15.82;;
31238;SDS011;17871;31.584;74.450;2024-03-08T12:56:59;34.35;;;14.30;;
31238;SDS011;17871;31.584;74.450;2024-03-08T12:59:28;40.45;;;16.98;;
31238;SDS011;17871;31.584;74.450;2024-03-08T13:01:58;38.85;;;16.05;;
31238;SDS011;17871;31.584;74.450;2024-03-08T13:04:28;42.65;;;13.93;;
31238;SDS011;17871;31.584;74.450;2024-03-08T13:06:59;25.75;;;14.50;;
31238;SDS011;17871;31.584;74.450;2024-03-08T13:09:30;29.83;;;12.18;;
31238;SDS011;17871;31.584;74.450;2024-03-08T13:12:00;26.27;;;11.18;;
31238;SDS011;17871;31.584;74.450;2024-03-08T13:14:29;27.75;;;11.23;;
31238;SDS011;17871;31.584;74.450;2024-03-08T13:17:00;32.75;;;11.52;;
31238;SDS011;17871;31.584;74.450;2024-03-08T13:19:30;28.35;;;13.02;;
31238;SDS011;17871;31.584;74.450;2024-03-08T13:21:59;35.08;;;13.52;;
31238;SDS011;17871;31.584;74.450;2024-03-08T13:24:28;40.50;;;14.77;;
31238;SDS011;17871;31.584;74.450;2024-03-08T13:26:57;50.85;;;15.10;;
31238;SDS011;17871;31.584;74.450;2024-03-08T13:29:28;47.80;;;17.35;;
31238;SDS011;17871;31.584;74.450;2024-03-08T13:31:58;55.67;;;17.67;;
31238;SDS011;17871;31.584;74.450;2024-03-08T13:34:30;47.92;;;18.40;;
31238;SDS011;17871;31.584;74.450;2024-03-08T13:37:03;77.53;;;21.58;;
31238;SDS011;17871;31.584;74.450;2024-03-08T13:39:34;67.00;;;20.35;;
31238;SDS011;17871;31.584;74.450;2024-03-08T13:42:09;71.07;;;21.17;;
31238;SDS011;17871;31.584;74.450;2024-03-08T13:44:45;57.03;;;21.23;;
31238;SDS011;17871;31.584;74.450;2024-03-08T13:47:17;63.25;;;22.08;;
31238;SDS011;17871;31.584;74.450;2024-03-08T13:49:46;66.68;;;23.10;;
31238;SDS011;17871;31.584;74.450;2024-03-08T13:52:19;62.30;;;23.55;;
31238;SDS011;17871;31.584;74.450;2024-03-08T13:54:48;75.22;;;26.38;;
31238;SDS011;17871;31.584;74.450;2024-03-08T13:57:18;91.20;;;24.67;;
31238;SDS011;17871;31.584;74.450;2024-03-08T13:59:48;64.25;;;24.42;;
31238;SDS011;17871;31.584;74.450;2024-03-08T14:02:20;64.28;;;23.60;;
31238;SDS011;17871;31.584;74.450;2024-03-08T14:04:51;57.00;;;23.42;;
31238;SDS011;17871;31.584;74.450;2024-03-08T14:07:20;66.10;;;24.40;;
31238;SDS011;17871;31.584;74.450;2024-03-08T14:09:51;81.63;;;23.80;;
31238;SDS011;17871;31.584;74.450;2024-03-08T14:12:21;91.05;;;24.10;;
31238;SDS011;17871;31.584;74.450;2024-03-08T14:14:52;64.03;;;23.98;;
31238;SDS011;17871;31.584;74.450;2024-03-08T14:17:22;78.05;;;25.95;;
31238;SDS011;17871;31.584;74.450;2024-03-08T14:19:51;72.93;;;25.48;;
31238;SDS011;17871;31.584;74.450;2024-03-08T14:22:22;68.35;;;22.50;;
31238;SDS011;17871;31.584;74.450;2024-03-08T14:24:52;61.17;;;21.95;;
31238;SDS011;17871;31.584;74.450;2024-03-08T14:27:22;59.53;;;21.38;;
31238;SDS011;17871;31.584;74.450;2024-03-08T14:29:52;61.60;;;23.67;;
31238;SDS011;17871;31.584;74.450;2024-03-08T14:32:23;65.10;;;24.42;;
31238;SDS011;17871;31.584;74.450;2024-03-08T14:34:53;67.80;;;26.45;;
31238;SDS011;17871;31.584;74.450;2024-03-08T14:37:24;68.63;;;27.80;;
31238;SDS011;17871;31.584;74.450;2024-03-08T14:39:58;76.60;;;31.60;;
31238;SDS011;17871;31.584;74.450;2024-03-08T14:42:27;84.25;;;32.10;;
31238;SDS011;17871;31.584;74.450;2024-03-08T14:44:56;93.35;;;32.83;;
31238;SDS011;17871;31.584;74.450;2024-03-08T14:47:26;98.47;;;33.33;;
31238;SDS011;17871;31.584;74.450;2024-03-08T14:49:57;93.93;;;36.28;;